Time;durP1;ratioP1;P1;durP2;ratioP2;P2;SDS_P1;SDS_P2;PMS_P1;PMS_P2;Temp;Humidity;BMP_temperature;BMP_pressure;BME280_temperature;BME280_humidity;BME280_pressure;Samples;Min_cycle;Max_cycle;Signal;HPM_P1;HPM_P2
2023/08/03 00:02:16;;;;;;;1.70;1.60;;;;;;;;;;5021621;28;20221;-54
2023/08/03 00:04:42;;;;;;;2.67;1.30;;;;;;;;;;5022495;28;20190;-56
2023/08/03 00:07:08;;;;;;;4.07;1.47;;;;;;;;;;5024454;28;20190;-53
2023/08/03 00:09:34;;;;;;;2.27;1.40;;;;;;;;;;5025536;28;20749;-55
2023/08/03 00:12:00;;;;;;;2.27;2.03;;;;;;;;;;5021861;28;20186;-55
2023/08/03 00:14:26;;;;;;;1.90;1.70;;;;;;;;;;5025989;28;20185;-55
2023/08/03 00:16:52;;;;;;;3.00;1.60;;;;;;;;;;5024612;28;20182;-55
2023/08/03 00:19:18;;;;;;;1.53;1.43;;;;;;;;;;5023990;28;20185;-55
2023/08/03 00:21:44;;;;;;;1.60;1.50;;;;;;;;;;5022378;28;20178;-55
2023/08/03 00:24:10;;;;;;;2.53;1.73;;;;;;;;;;5024360;28;20181;-55
2023/08/03 00:26:36;;;;;;;1.73;1.50;;;;;;;;;;5023321;28;20684;-55
2023/08/03 00:29:02;;;;;;;3.77;1.63;;;;;;;;;;5023716;28;20289;-55
2023/08/03 00:31:28;;;;;;;3.00;1.83;;;;;;;;;;5025583;28;20337;-55
2023/08/03 00:33:54;;;;;;;1.67;1.57;;;;;;;;;;5025262;28;20182;-55
2023/08/03 00:36:20;;;;;;;2.00;1.47;;;;;;;;;;5021215;28;20541;-55
2023/08/03 00:38:47;;;;;;;3.07;1.50;;;;;;;;;;5024025;28;20613;-55
2023/08/03 00:41:13;;;;;;;2.73;2.20;;;;;;;;;;5021332;28;20528;-55
2023/08/03 00:43:39;;;;;;;1.63;1.27;;;;;;;;;;5019494;28;20190;-54
2023/08/03 00:46:05;;;;;;;3.40;1.50;;;;;;;;;;5024217;28;20331;-55
2023/08/03 00:48:31;;;;;;;2.07;1.53;;;;;;;;;;5021203;28;20201;-55
2023/08/03 00:50:57;;;;;;;1.73;1.47;;;;;;;;;;5019501;28;20515;-55
2023/08/03 00:53:23;;;;;;;3.47;1.77;;;;;;;;;;5020152;28;20197;-54
2023/08/03 00:55:49;;;;;;;2.07;1.70;;;;;;;;;;5022464;28;20190;-55
2023/08/03 00:58:15;;;;;;;2.30;1.70;;;;;;;;;;5025194;28;20182;-56
2023/08/03 01:00:42;;;;;;;1.60;1.50;;;;;;;;;;5018647;28;20186;-56
2023/08/03 01:03:08;;;;;;;1.70;1.60;;;;;;;;;;5025689;28;20646;-56
2023/08/03 01:05:34;;;;;;;1.63;1.53;;;;;;;;;;5026839;28;20957;-57
2023/08/03 01:08:00;;;;;;;1.93;1.83;;;;;;;;;;5026357;28;20240;-55
2023/08/03 01:10:28;;;;;;;2.70;1.53;;;;;;;;;;5028525;28;20212;-56
2023/08/03 01:12:55;;;;;;;1.77;1.67;;;;;;;;;;5027138;28;20184;-56
2023/08/03 01:15:21;;;;;;;2.10;1.67;;;;;;;;;;5024873;28;20536;-56
2023/08/03 01:17:48;;;;;;;1.50;1.40;;;;;;;;;;5028205;28;20712;-56
2023/08/03 01:20:14;;;;;;;2.57;1.83;;;;;;;;;;5025406;28;20190;-56
2023/08/03 01:22:42;;;;;;;1.80;1.53;;;;;;;;;;5025288;28;20196;-55
2023/08/03 01:25:08;;;;;;;2.23;1.60;;;;;;;;;;5025874;28;20649;-56
2023/08/03 01:27:34;;;;;;;2.47;1.60;;;;;;;;;;5024136;28;20190;-56
2023/08/03 01:30:00;;;;;;;5.83;1.83;;;;;;;;;;5029707;28;20493;-55
2023/08/03 01:32:26;;;;;;;1.63;1.47;;;;;;;;;;5013012;28;20190;-56
2023/08/03 01:34:52;;;;;;;1.73;1.50;;;;;;;;;;5027049;28;20218;-56
2023/08/03 01:37:18;;;;;;;1.83;1.53;;;;;;;;;;5026460;28;20531;-55
2023/08/03 01:39:45;;;;;;;3.67;1.90;;;;;;;;;;5026868;28;20198;-56
2023/08/03 01:42:11;;;;;;;2.63;1.50;;;;;;;;;;5030936;28;20214;-55
2023/08/03 01:44:38;;;;;;;1.60;1.50;;;;;;;;;;5027319;28;20297;-56
2023/08/03 01:47:04;;;;;;;1.60;1.50;;;;;;;;;;5025042;28;20220;-56
2023/08/03 01:49:31;;;;;;;3.57;1.63;;;;;;;;;;5027641;28;20251;-56
2023/08/03 01:51:57;;;;;;;2.43;1.80;;;;;;;;;;5025678;28;20265;-55
2023/08/03 01:54:24;;;;;;;3.97;2.33;;;;;;;;;;5025922;28;20182;-55
2023/08/03 01:56:50;;;;;;;1.87;1.70;;;;;;;;;;5026106;28;20188;-56
2023/08/03 01:59:16;;;;;;;1.93;1.80;;;;;;;;;;5025788;28;20189;-56
2023/08/03 02:01:42;;;;;;;1.97;1.50;;;;;;;;;;5027960;28;20645;-56
2023/08/03 02:04:08;;;;;;;4.20;1.83;;;;;;;;;;5027099;28;20285;-55
2023/08/03 02:06:36;;;;;;;3.23;2.27;;;;;;;;;;5026597;28;20194;-55
2023/08/03 02:09:02;;;;;;;3.33;2.17;;;;;;;;;;5023452;28;20248;-54
2023/08/03 02:11:29;;;;;;;1.80;1.57;;;;;;;;;;5028274;28;20222;-55
2023/08/03 02:13:55;;;;;;;3.50;1.80;;;;;;;;;;5026836;28;20233;-55
2023/08/03 02:16:21;;;;;;;2.10;1.90;;;;;;;;;;5026951;28;20239;-53
2023/08/03 02:18:47;;;;;;;2.60;1.93;;;;;;;;;;5023251;28;20189;-53
2023/08/03 02:21:13;;;;;;;1.90;1.80;;;;;;;;;;5024585;28;20484;-54
2023/08/03 02:23:39;;;;;;;2.60;1.80;;;;;;;;;;5022685;28;20190;-54
2023/08/03 02:26:05;;;;;;;1.97;1.80;;;;;;;;;;5008769;28;20194;-53
2023/08/03 02:28:32;;;;;;;2.70;1.80;;;;;;;;;;5024146;28;20197;-54
2023/08/03 02:30:58;;;;;;;2.83;1.50;;;;;;;;;;5024862;28;20224;-53
2023/08/03 02:33:24;;;;;;;2.43;1.73;;;;;;;;;;5025388;28;20559;-53
2023/08/03 02:35:50;;;;;;;1.80;1.70;;;;;;;;;;5025078;28;20217;-53
2023/08/03 02:38:17;;;;;;;4.30;2.50;;;;;;;;;;5026560;28;20617;-54
2023/08/03 02:40:43;;;;;;;3.17;1.90;;;;;;;;;;5023829;28;20275;-53
2023/08/03 02:43:09;;;;;;;2.90;1.67;;;;;;;;;;5026642;28;20229;-53
2023/08/03 02:45:35;;;;;;;2.67;1.97;;;;;;;;;;5023840;28;20192;-53
2023/08/03 02:48:01;;;;;;;3.70;2.30;;;;;;;;;;5027245;28;20182;-53
2023/08/03 02:50:27;;;;;;;4.67;2.27;;;;;;;;;;5022983;28;20673;-53
2023/08/03 02:52:53;;;;;;;2.60;2.23;;;;;;;;;;5026599;28;20181;-53
2023/08/03 02:55:19;;;;;;;3.00;2.10;;;;;;;;;;5028415;28;20182;-54
2023/08/03 02:57:45;;;;;;;3.80;1.77;;;;;;;;;;5027506;28;20209;-53
2023/08/03 03:00:11;;;;;;;4.67;2.20;;;;;;;;;;5021536;28;20948;-53
2023/08/03 03:02:37;;;;;;;3.03;1.93;;;;;;;;;;5025853;28;20189;-53
2023/08/03 03:05:03;;;;;;;4.03;2.20;;;;;;;;;;5026218;28;20674;-54
2023/08/03 03:07:31;;;;;;;3.13;2.00;;;;;;;;;;5022802;28;20942;-53
2023/08/03 03:09:57;;;;;;;3.07;1.53;;;;;;;;;;5024768;28;20213;-53
2023/08/03 03:12:24;;;;;;;2.07;1.77;;;;;;;;;;5025055;28;20577;-53
2023/08/03 03:14:50;;;;;;;3.63;2.23;;;;;;;;;;5026031;28;20186;-54
2023/08/03 03:17:16;;;;;;;2.90;2.17;;;;;;;;;;5026746;28;20182;-53
2023/08/03 03:19:42;;;;;;;5.03;1.80;;;;;;;;;;5025829;28;20186;-53
2023/08/03 03:22:08;;;;;;;5.13;2.30;;;;;;;;;;5026415;28;20226;-54
2023/08/03 03:24:34;;;;;;;3.27;1.77;;;;;;;;;;5022021;28;21027;-53
2023/08/03 03:27:01;;;;;;;3.50;1.97;;;;;;;;;;5027008;28;20296;-53
2023/08/03 03:29:27;;;;;;;3.73;2.00;;;;;;;;;;5020868;28;20848;-53
2023/08/03 03:31:53;;;;;;;6.53;2.57;;;;;;;;;;5020604;28;20206;-53
2023/08/03 03:34:19;;;;;;;4.17;1.80;;;;;;;;;;5020959;28;20190;-53
2023/08/03 03:36:45;;;;;;;3.07;1.90;;;;;;;;;;5023073;28;20204;-53
2023/08/03 03:39:11;;;;;;;3.40;1.93;;;;;;;;;;5027847;28;20193;-53
2023/08/03 03:41:37;;;;;;;2.27;1.93;;;;;;;;;;5025259;28;20193;-53
2023/08/03 03:44:03;;;;;;;5.43;1.73;;;;;;;;;;5026990;28;20197;-53
2023/08/03 03:46:29;;;;;;;2.20;1.90;;;;;;;;;;5022275;28;20255;-53
2023/08/03 03:48:55;;;;;;;3.13;1.87;;;;;;;;;;5024208;28;20198;-53
2023/08/03 03:51:21;;;;;;;3.67;1.87;;;;;;;;;;5020502;28;20582;-53
2023/08/03 03:53:47;;;;;;;2.07;1.80;;;;;;;;;;5025853;28;20576;-53
2023/08/03 03:56:13;;;;;;;3.97;2.00;;;;;;;;;;5026382;28;20621;-53
2023/08/03 03:58:40;;;;;;;2.93;2.07;;;;;;;;;;5021614;28;20605;-53
2023/08/03 04:01:06;;;;;;;3.80;2.10;;;;;;;;;;5024913;28;20248;-53
2023/08/03 04:03:32;;;;;;;4.17;2.00;;;;;;;;;;5025156;28;20194;-53
2023/08/03 04:05:58;;;;;;;3.80;1.50;;;;;;;;;;5026114;28;20192;-53
2023/08/03 04:08:24;;;;;;;4.27;1.80;;;;;;;;;;5021451;28;20247;-53
2023/08/03 04:10:50;;;;;;;4.10;1.97;;;;;;;;;;5026890;28;20244;-53
2023/08/03 04:13:16;;;;;;;2.23;1.70;;;;;;;;;;5023838;28;20661;-53
2023/08/03 04:15:42;;;;;;;2.20;1.53;;;;;;;;;;5024674;28;20209;-53
2023/08/03 04:18:08;;;;;;;2.40;1.70;;;;;;;;;;5023263;28;20653;-53
2023/08/03 04:20:34;;;;;;;2.70;1.50;;;;;;;;;;5025501;28;20558;-55
2023/08/03 04:23:00;;;;;;;3.10;2.20;;;;;;;;;;5018889;28;20198;-54
2023/08/03 04:25:26;;;;;;;2.23;1.90;;;;;;;;;;5026861;28;20224;-54
2023/08/03 04:27:52;;;;;;;4.10;2.37;;;;;;;;;;5025218;28;20235;-53
2023/08/03 04:30:19;;;;;;;2.47;1.50;;;;;;;;;;5024973;28;20700;-54
2023/08/03 04:32:45;;;;;;;3.80;1.70;;;;;;;;;;5026331;28;20186;-54
2023/08/03 04:35:11;;;;;;;2.03;1.53;;;;;;;;;;5024681;28;20220;-54
2023/08/03 04:37:37;;;;;;;1.73;1.57;;;;;;;;;;5024355;28;20193;-54
2023/08/03 04:40:04;;;;;;;3.43;1.70;;;;;;;;;;5031357;28;20700;-54
2023/08/03 04:42:30;;;;;;;1.63;1.40;;;;;;;;;;5027582;28;20197;-54
2023/08/03 04:44:56;;;;;;;1.60;1.30;;;;;;;;;;5028375;28;20201;-54
2023/08/03 04:47:22;;;;;;;3.07;2.10;;;;;;;;;;5028854;28;20260;-54
2023/08/03 04:49:48;;;;;;;2.97;1.73;;;;;;;;;;5007526;28;20217;-53
2023/08/03 04:52:14;;;;;;;1.77;1.67;;;;;;;;;;5029766;28;20552;-54
2023/08/03 04:54:40;;;;;;;1.70;1.60;;;;;;;;;;5022876;28;20185;-54
2023/08/03 04:57:06;;;;;;;2.67;1.60;;;;;;;;;;5028263;28;20194;-54
2023/08/03 04:59:32;;;;;;;1.50;1.33;;;;;;;;;;5024585;28;20193;-54
2023/08/03 05:01:58;;;;;;;11.87;1.90;;;;;;;;;;5025142;28;20197;-54
2023/08/03 05:04:24;;;;;;;3.83;1.67;;;;;;;;;;5027217;28;20190;-54
2023/08/03 05:06:52;;;;;;;1.73;1.50;;;;;;;;;;5026955;28;20728;-54
2023/08/03 05:09:18;;;;;;;4.97;1.90;;;;;;;;;;5026094;28;20197;-54
2023/08/03 05:11:44;;;;;;;2.10;1.70;;;;;;;;;;5028656;28;20630;-54
2023/08/03 05:14:10;;;;;;;2.00;1.70;;;;;;;;;;5010831;28;20190;-54
2023/08/03 05:16:36;;;;;;;3.50;1.40;;;;;;;;;;5029504;28;20201;-55
2023/08/03 05:19:02;;;;;;;1.90;1.40;;;;;;;;;;5024219;28;20190;-52
2023/08/03 05:21:28;;;;;;;5.33;1.70;;;;;;;;;;5025354;28;20288;-52
2023/08/03 05:23:54;;;;;;;2.17;1.47;;;;;;;;;;5024013;28;20185;-52
2023/08/03 05:26:20;;;;;;;4.57;1.57;;;;;;;;;;5028155;28;20264;-52
2023/08/03 05:28:46;;;;;;;2.37;1.70;;;;;;;;;;5028422;28;20197;-54
2023/08/03 05:31:12;;;;;;;1.53;1.30;;;;;;;;;;5029836;28;20221;-51
2023/08/03 05:33:38;;;;;;;1.40;1.30;;;;;;;;;;5027485;28;20194;-52
2023/08/03 05:36:04;;;;;;;2.00;1.43;;;;;;;;;;5022420;28;20720;-52
2023/08/03 05:38:30;;;;;;;2.40;1.57;;;;;;;;;;5026796;28;21073;-53
2023/08/03 05:40:57;;;;;;;1.57;1.40;;;;;;;;;;5028362;28;20616;-51
2023/08/03 05:43:24;;;;;;;1.73;1.63;;;;;;;;;;5024918;28;20918;-51
2023/08/03 05:45:53;;;;;;;3.10;1.70;;;;;;;;;;5026954;28;20189;-51
2023/08/03 05:48:20;;;;;;;2.97;1.57;;;;;;;;;;5023335;28;20190;-51
2023/08/03 05:50:47;;;;;;;1.63;1.40;;;;;;;;;;5024173;28;20217;-51
2023/08/03 05:53:13;;;;;;;3.10;1.60;;;;;;;;;;5026460;28;20193;-50
2023/08/03 05:55:40;;;;;;;2.40;1.50;;;;;;;;;;5026367;28;21449;-52
2023/08/03 05:58:09;;;;;;;2.43;1.80;;;;;;;;;;5024899;28;20280;-52
2023/08/03 06:00:35;;;;;;;3.03;1.60;;;;;;;;;;5026773;28;20240;-52
2023/08/03 06:03:01;;;;;;;1.30;1.20;;;;;;;;;;5024047;28;20182;-53
2023/08/03 06:05:36;;;;;;;1.50;1.27;;;;;;;;;;5023814;28;20190;-52
2023/08/03 06:08:10;;;;;;;1.93;1.47;;;;;;;;;;5023382;28;20649;-53
2023/08/03 06:10:36;;;;;;;1.60;1.33;;;;;;;;;;5023508;28;20239;-54
2023/08/03 06:13:03;;;;;;;1.53;1.40;;;;;;;;;;5027305;28;20188;-55
2023/08/03 06:15:29;;;;;;;2.40;1.63;;;;;;;;;;5022762;28;20224;-55
2023/08/03 06:18:06;;;;;;;2.30;1.87;;;;;;;;;;5027169;28;20186;-55
2023/08/03 06:20:32;;;;;;;4.27;1.60;;;;;;;;;;5024304;28;20190;-55
2023/08/03 06:22:59;;;;;;;1.80;1.70;;;;;;;;;;5023484;28;20565;-58
2023/08/03 06:25:25;;;;;;;2.17;1.60;;;;;;;;;;5024342;28;20190;-55
2023/08/03 06:27:51;;;;;;;2.73;1.53;;;;;;;;;;5007906;28;20193;-55
2023/08/03 06:30:18;;;;;;;3.73;1.47;;;;;;;;;;5003602;28;20232;-54
2023/08/03 06:32:44;;;;;;;1.40;1.30;;;;;;;;;;5025374;28;20595;-54
2023/08/03 06:35:24;;;;;;;2.77;1.90;;;;;;;;;;5027020;28;20283;-54
2023/08/03 06:37:52;;;;;;;1.83;1.53;;;;;;;;;;5026522;28;20189;-54
2023/08/03 06:40:18;;;;;;;1.73;1.20;;;;;;;;;;5023271;28;20673;-54
2023/08/03 06:42:44;;;;;;;2.67;1.60;;;;;;;;;;5022686;28;20194;-54
2023/08/03 06:45:11;;;;;;;2.77;1.60;;;;;;;;;;5022766;28;20190;-54
2023/08/03 06:47:37;;;;;;;2.30;1.63;;;;;;;;;;5023065;28;20194;-54
2023/08/03 06:50:03;;;;;;;2.90;1.43;;;;;;;;;;5021454;28;20964;-53
2023/08/03 06:52:29;;;;;;;2.10;1.27;;;;;;;;;;5022306;28;20228;-52
2023/08/03 06:54:56;;;;;;;2.03;1.40;;;;;;;;;;5024267;28;20185;-52
2023/08/03 06:57:22;;;;;;;1.60;1.50;;;;;;;;;;5028025;28;20240;-53
2023/08/03 06:59:48;;;;;;;1.47;1.33;;;;;;;;;;5028776;28;20237;-52
2023/08/03 07:02:14;;;;;;;1.50;1.40;;;;;;;;;;5029034;28;20197;-52
2023/08/03 07:04:41;;;;;;;2.37;1.60;;;;;;;;;;5024253;28;20253;-53
2023/08/03 07:07:08;;;;;;;2.77;1.70;;;;;;;;;;5025349;28;20220;-52
2023/08/03 07:09:34;;;;;;;2.13;1.50;;;;;;;;;;5024624;28;20783;-52
2023/08/03 07:12:00;;;;;;;1.90;1.80;;;;;;;;;;5021496;28;20193;-52
2023/08/03 07:14:26;;;;;;;2.17;1.60;;;;;;;;;;5022387;28;20447;-52
2023/08/03 07:16:52;;;;;;;1.50;1.40;;;;;;;;;;5022273;28;20190;-52
2023/08/03 07:19:18;;;;;;;2.33;1.60;;;;;;;;;;5024234;28;20256;-52
2023/08/03 07:21:44;;;;;;;4.43;1.50;;;;;;;;;;5026115;28;20186;-52
2023/08/03 07:24:10;;;;;;;1.73;1.40;;;;;;;;;;5026900;28;20571;-52
2023/08/03 07:26:36;;;;;;;2.00;1.80;;;;;;;;;;5009688;28;20254;-52
2023/08/03 07:29:03;;;;;;;5.37;1.90;;;;;;;;;;5025091;28;20194;-52
2023/08/03 07:31:30;;;;;;;1.70;1.60;;;;;;;;;;5028263;28;20253;-52
2023/08/03 07:33:56;;;;;;;1.67;1.57;;;;;;;;;;5025372;28;20193;-50
2023/08/03 07:36:22;;;;;;;1.73;1.50;;;;;;;;;;5022973;28;20206;-52
2023/08/03 07:38:48;;;;;;;1.93;1.50;;;;;;;;;;5024920;28;20186;-52
2023/08/03 07:41:14;;;;;;;2.30;1.77;;;;;;;;;;5028705;28;20196;-52
2023/08/03 07:43:40;;;;;;;1.70;1.60;;;;;;;;;;5019823;28;20186;-51
2023/08/03 07:46:06;;;;;;;2.17;1.57;;;;;;;;;;5027286;28;21576;-51
2023/08/03 07:48:32;;;;;;;2.60;1.80;;;;;;;;;;5023688;28;20185;-51
2023/08/03 07:50:59;;;;;;;3.97;2.13;;;;;;;;;;5029565;28;20340;-51
2023/08/03 07:53:25;;;;;;;1.50;1.40;;;;;;;;;;5021075;28;20190;-52
2023/08/03 07:55:51;;;;;;;5.07;1.93;;;;;;;;;;5025597;28;20186;-51
2023/08/03 07:58:17;;;;;;;2.17;1.70;;;;;;;;;;5025393;28;20189;-51
2023/08/03 08:00:43;;;;;;;1.63;1.50;;;;;;;;;;5026630;28;20625;-51
2023/08/03 08:03:09;;;;;;;1.80;1.60;;;;;;;;;;5026521;28;20200;-52
2023/08/03 08:05:35;;;;;;;2.03;1.60;;;;;;;;;;5025022;28;20192;-51
2023/08/03 08:08:01;;;;;;;1.80;1.70;;;;;;;;;;5024877;28;20194;-52
2023/08/03 08:10:27;;;;;;;3.03;1.80;;;;;;;;;;5025540;28;20209;-51
2023/08/03 08:12:53;;;;;;;3.97;1.90;;;;;;;;;;5023908;28;20190;-52
2023/08/03 08:15:20;;;;;;;1.90;1.80;;;;;;;;;;5020175;28;20281;-52
2023/08/03 08:17:46;;;;;;;3.70;2.03;;;;;;;;;;5005454;28;20247;-52
2023/08/03 08:20:12;;;;;;;2.83;2.00;;;;;;;;;;5020984;28;20185;-52
2023/08/03 08:22:38;;;;;;;1.97;1.53;;;;;;;;;;5015726;28;20235;-51
2023/08/03 08:25:05;;;;;;;3.73;2.03;;;;;;;;;;5022831;28;20193;-51
2023/08/03 08:27:31;;;;;;;3.90;2.73;;;;;;;;;;5023591;28;20574;-52
2023/08/03 08:30:00;;;;;;;3.13;1.97;;;;;;;;;;5027460;28;20224;-51
2023/08/03 08:32:26;;;;;;;4.33;2.17;;;;;;;;;;5028034;28;20206;-51
2023/08/03 08:34:52;;;;;;;3.63;2.50;;;;;;;;;;5010934;28;20591;-52
2023/08/03 08:37:19;;;;;;;2.63;2.10;;;;;;;;;;5028047;28;20657;-52
2023/08/03 08:39:45;;;;;;;2.80;1.93;;;;;;;;;;5028362;28;20192;-51
2023/08/03 08:42:15;;;;;;;2.47;2.03;;;;;;;;;;5025686;28;20190;-52
2023/08/03 08:44:41;;;;;;;3.77;2.60;;;;;;;;;;5029133;28;20188;-51
2023/08/03 08:47:07;;;;;;;6.40;2.03;;;;;;;;;;5026163;28;20186;-51
2023/08/03 08:49:33;;;;;;;2.13;1.80;;;;;;;;;;5010090;28;20186;-50
2023/08/03 08:52:02;;;;;;;1.90;1.80;;;;;;;;;;5028499;28;20182;-50
2023/08/03 08:54:32;;;;;;;3.53;2.17;;;;;;;;;;5027808;28;20189;-51
2023/08/03 08:56:58;;;;;;;2.33;2.10;;;;;;;;;;5028904;28;20565;-51
2023/08/03 08:59:26;;;;;;;2.57;1.90;;;;;;;;;;5028066;28;20586;-50
2023/08/03 09:01:53;;;;;;;4.40;2.77;;;;;;;;;;5027894;28;20178;-51
2023/08/03 09:04:33;;;;;;;1.80;1.70;;;;;;;;;;5026141;28;20182;-51
2023/08/03 09:07:00;;;;;;;5.27;2.73;;;;;;;;;;5027312;28;20668;-51
2023/08/03 09:09:28;;;;;;;2.73;1.87;;;;;;;;;;5028192;28;20197;-52
2023/08/03 09:11:57;;;;;;;3.60;2.07;;;;;;;;;;5027713;28;20206;-51
2023/08/03 09:14:23;;;;;;;3.03;2.07;;;;;;;;;;5026577;28;20194;-52
2023/08/03 09:16:50;;;;;;;2.47;2.10;;;;;;;;;;5018491;28;20205;-51
2023/08/03 09:19:34;;;;;;;3.60;2.20;;;;;;;;;;5027921;28;20235;-51
2023/08/03 09:22:01;;;;;;;4.97;2.10;;;;;;;;;;5026307;28;20269;-51
2023/08/03 09:24:27;;;;;;;2.00;1.70;;;;;;;;;;5029383;28;20178;-51
2023/08/03 09:26:54;;;;;;;3.60;2.30;;;;;;;;;;5031400;28;20231;-52
2023/08/03 09:29:21;;;;;;;3.30;2.10;;;;;;;;;;5030488;28;20687;-52
2023/08/03 09:31:47;;;;;;;3.83;1.87;;;;;;;;;;5031872;28;20214;-51
2023/08/03 09:34:13;;;;;;;2.60;2.20;;;;;;;;;;5031482;28;20236;-51
2023/08/03 09:36:50;;;;;;;3.43;2.07;;;;;;;;;;5030161;28;20217;-51
2023/08/03 09:39:18;;;;;;;2.63;2.37;;;;;;;;;;5028408;28;20174;-50
2023/08/03 09:41:45;;;;;;;2.07;1.80;;;;;;;;;;5006765;28;20200;-51
2023/08/03 09:44:14;;;;;;;2.20;1.80;;;;;;;;;;5016442;28;20601;-52
2023/08/03 09:46:41;;;;;;;2.80;1.80;;;;;;;;;;5031567;28;20221;-51
2023/08/03 09:49:07;;;;;;;3.70;2.73;;;;;;;;;;5030621;28;20194;-51
2023/08/03 09:51:35;;;;;;;2.90;2.23;;;;;;;;;;5031343;28;20598;-51
2023/08/03 09:54:22;;;;;;;2.53;2.23;;;;;;;;;;5030009;28;20191;-51
2023/08/03 09:56:53;;;;;;;2.27;2.03;;;;;;;;;;5031675;28;20165;-51
2023/08/03 09:59:25;;;;;;;2.53;2.20;;;;;;;;;;5031334;28;20621;-52
2023/08/03 10:01:53;;;;;;;2.70;2.07;;;;;;;;;;5031402;28;20200;-50
2023/08/03 10:04:20;;;;;;;3.33;2.20;;;;;;;;;;5031451;28;20603;-51
2023/08/03 10:06:50;;;;;;;2.97;2.30;;;;;;;;;;5030984;28;20186;-51
2023/08/03 10:09:21;;;;;;;4.27;2.13;;;;;;;;;;5030567;28;20182;-51
2023/08/03 10:11:48;;;;;;;2.40;1.80;;;;;;;;;;5013455;28;20210;-52
2023/08/03 10:14:22;;;;;;;3.43;2.43;;;;;;;;;;5020421;28;20190;-51
2023/08/03 10:16:48;;;;;;;2.33;2.13;;;;;;;;;;5027276;28;20287;-51
2023/08/03 10:19:15;;;;;;;4.53;2.23;;;;;;;;;;5031014;28;20267;-51
2023/08/03 10:21:41;;;;;;;5.27;2.67;;;;;;;;;;5030771;28;20228;-51
2023/08/03 10:24:12;;;;;;;4.97;2.40;;;;;;;;;;5030222;28;20240;-52
2023/08/03 10:26:38;;;;;;;6.57;2.40;;;;;;;;;;5012957;28;20190;-51
2023/08/03 10:29:05;;;;;;;3.33;2.40;;;;;;;;;;5029972;28;20548;-51
2023/08/03 10:31:31;;;;;;;7.33;2.30;;;;;;;;;;5030297;28;20221;-51
2023/08/03 10:33:57;;;;;;;2.80;2.43;;;;;;;;;;5031252;28;20279;-51
2023/08/03 10:36:27;;;;;;;3.10;2.47;;;;;;;;;;5011514;28;20213;-52
2023/08/03 10:38:56;;;;;;;4.37;3.30;;;;;;;;;;5029904;28;20189;-53
2023/08/03 10:41:23;;;;;;;5.03;2.70;;;;;;;;;;5012314;28;20653;-53
2023/08/03 10:44:13;;;;;;;5.93;3.00;;;;;;;;;;5030734;28;20186;-54
2023/08/03 10:46:40;;;;;;;5.03;3.53;;;;;;;;;;5029974;28;20546;-54
2023/08/03 10:49:19;;;;;;;3.40;3.10;;;;;;;;;;5030496;28;20654;-51
2023/08/03 10:51:46;;;;;;;5.47;3.00;;;;;;;;;;5029572;28;20213;-51
2023/08/03 10:54:13;;;;;;;5.20;3.60;;;;;;;;;;5029967;28;20210;-50
2023/08/03 10:56:39;;;;;;;4.60;3.63;;;;;;;;;;5030621;28;20200;-50
2023/08/03 10:59:05;;;;;;;6.17;4.07;;;;;;;;;;5030347;28;20182;-51
2023/08/03 11:01:32;;;;;;;5.30;4.00;;;;;;;;;;5029219;28;20182;-51
2023/08/03 11:03:59;;;;;;;7.80;3.80;;;;;;;;;;5029725;28;20255;-51
2023/08/03 11:06:25;;;;;;;6.27;3.80;;;;;;;;;;5029908;28;20520;-51
2023/08/03 11:08:54;;;;;;;6.57;3.67;;;;;;;;;;5029476;28;20186;-53
2023/08/03 11:11:32;;;;;;;5.73;3.50;;;;;;;;;;5022890;28;20206;-50
2023/08/03 11:13:59;;;;;;;7.40;3.20;;;;;;;;;;5018880;28;20189;-51
2023/08/03 11:16:25;;;;;;;6.20;3.00;;;;;;;;;;5027454;28;20193;-51
2023/08/03 11:18:51;;;;;;;6.27;3.40;;;;;;;;;;5028515;28;20175;-51
2023/08/03 11:21:17;;;;;;;5.33;3.00;;;;;;;;;;5010328;28;20537;-51
2023/08/03 11:23:44;;;;;;;3.43;3.00;;;;;;;;;;5011004;28;20244;-51
2023/08/03 11:26:11;;;;;;;4.37;3.30;;;;;;;;;;5038886;28;20186;-50
2023/08/03 11:28:41;;;;;;;5.90;3.77;;;;;;;;;;5029704;28;20190;-50
2023/08/03 11:31:17;;;;;;;8.40;4.37;;;;;;;;;;5029206;28;20287;-51
2023/08/03 11:34:01;;;;;;;4.07;3.67;;;;;;;;;;5029895;28;20529;-51
2023/08/03 11:36:27;;;;;;;7.70;5.33;;;;;;;;;;5028013;28;20584;-50
2023/08/03 11:38:53;;;;;;;6.03;4.70;;;;;;;;;;5022594;28;20581;-50
2023/08/03 11:41:24;;;;;;;6.90;5.43;;;;;;;;;;5028501;28;20185;-49
2023/08/03 11:43:51;;;;;;;6.40;4.70;;;;;;;;;;5025440;28;20511;-51
2023/08/03 11:46:26;;;;;;;6.27;5.40;;;;;;;;;;5021333;28;20825;-50
2023/08/03 11:48:56;;;;;;;7.30;4.60;;;;;;;;;;5022477;28;20603;-50
2023/08/03 11:51:30;;;;;;;8.17;4.73;;;;;;;;;;4994670;28;20213;-50
2023/08/03 11:53:56;;;;;;;6.77;4.33;;;;;;;;;;5017635;28;20197;-50
2023/08/03 11:56:22;;;;;;;6.77;4.30;;;;;;;;;;5019412;28;20181;-50
2023/08/03 11:58:50;;;;;;;5.80;4.20;;;;;;;;;;5021743;28;20189;-50
2023/08/03 12:01:16;;;;;;;7.17;4.87;;;;;;;;;;5021422;28;20561;-49
2023/08/03 12:03:42;;;;;;;4.63;4.03;;;;;;;;;;5018635;28;20264;-50
2023/08/03 12:06:09;;;;;;;3.67;3.13;;;;;;;;;;5018958;28;20935;-50
2023/08/03 12:08:45;;;;;;;4.93;3.20;;;;;;;;;;5021852;28;20281;-50
2023/08/03 12:11:11;;;;;;;4.83;3.67;;;;;;;;;;5021246;28;20194;-50
2023/08/03 12:13:38;;;;;;;4.00;2.23;;;;;;;;;;5016320;28;20174;-50
2023/08/03 12:16:04;;;;;;;2.80;2.50;;;;;;;;;;5021365;28;20173;-51
2023/08/03 12:18:30;;;;;;;3.80;2.87;;;;;;;;;;5024670;28;20207;-50
2023/08/03 12:20:56;;;;;;;3.30;3.00;;;;;;;;;;5021991;28;20182;-50
2023/08/03 12:23:22;;;;;;;2.70;2.40;;;;;;;;;;5024334;28;20189;-50
2023/08/03 12:25:48;;;;;;;2.80;2.50;;;;;;;;;;5020591;28;20661;-51
2023/08/03 12:28:15;;;;;;;2.77;2.30;;;;;;;;;;5020893;28;20614;-50
2023/08/03 12:30:41;;;;;;;3.57;3.23;;;;;;;;;;5022450;28;20247;-50
2023/08/03 12:33:08;;;;;;;3.67;3.00;;;;;;;;;;5019046;28;20178;-50
2023/08/03 12:35:39;;;;;;;2.80;2.20;;;;;;;;;;5021741;28;20592;-50
2023/08/03 12:38:05;;;;;;;2.40;2.20;;;;;;;;;;5023057;28;20629;-50
2023/08/03 12:40:32;;;;;;;4.77;2.67;;;;;;;;;;5012802;28;20233;-50
2023/08/03 12:42:59;;;;;;;4.80;2.23;;;;;;;;;;5018751;28;20648;-49
2023/08/03 12:45:25;;;;;;;6.90;2.87;;;;;;;;;;5021363;28;20611;-51
2023/08/03 12:47:53;;;;;;;4.17;2.63;;;;;;;;;;5024467;28;20190;-51
2023/08/03 12:50:19;;;;;;;3.87;2.80;;;;;;;;;;5016429;28;20217;-49
2023/08/03 12:52:46;;;;;;;2.83;2.33;;;;;;;;;;5016950;28;20200;-51
2023/08/03 12:55:13;;;;;;;3.77;2.70;;;;;;;;;;5017602;28;20190;-51
2023/08/03 12:57:39;;;;;;;6.90;2.90;;;;;;;;;;5022387;28;20220;-51
2023/08/03 13:00:06;;;;;;;5.43;2.30;;;;;;;;;;5023684;28;20250;-49
2023/08/03 13:02:33;;;;;;;3.93;2.40;;;;;;;;;;5025937;28;21134;-51
2023/08/03 13:04:59;;;;;;;3.03;2.73;;;;;;;;;;5006754;28;20193;-49
2023/08/03 13:07:25;;;;;;;3.77;2.87;;;;;;;;;;5023519;28;20255;-51
2023/08/03 13:09:52;;;;;;;3.37;2.33;;;;;;;;;;5023834;28;20286;-50
2023/08/03 13:12:18;;;;;;;3.83;2.27;;;;;;;;;;5024111;28;20209;-49
2023/08/03 13:14:44;;;;;;;5.43;2.60;;;;;;;;;;5022360;28;20192;-50
2023/08/03 13:17:10;;;;;;;6.97;2.30;;;;;;;;;;5022182;28;20194;-51
2023/08/03 13:19:39;;;;;;;3.43;3.13;;;;;;;;;;5026448;28;20198;-53
2023/08/03 13:22:05;;;;;;;4.90;2.90;;;;;;;;;;5019403;28;20194;-54
2023/08/03 13:24:31;;;;;;;4.13;3.07;;;;;;;;;;5024710;28;20274;-52
2023/08/03 13:27:16;;;;;;;7.10;3.57;;;;;;;;;;5019768;28;20543;-53
2023/08/03 13:29:47;;;;;;;4.80;2.90;;;;;;;;;;5025489;28;20285;-53
2023/08/03 13:32:14;;;;;;;5.40;3.10;;;;;;;;;;5023116;28;20198;-54
2023/08/03 13:34:40;;;;;;;3.97;3.20;;;;;;;;;;5020611;28;20726;-54
2023/08/03 13:37:06;;;;;;;4.70;2.60;;;;;;;;;;5022430;28;20341;-55
2023/08/03 13:39:32;;;;;;;6.07;2.80;;;;;;;;;;5020073;28;20282;-53
2023/08/03 13:41:58;;;;;;;2.73;2.30;;;;;;;;;;5027234;28;20198;-53
2023/08/03 13:44:25;;;;;;;4.07;2.43;;;;;;;;;;5025228;28;20185;-53
2023/08/03 13:46:51;;;;;;;2.90;2.40;;;;;;;;;;5022152;28;20194;-53
2023/08/03 13:49:18;;;;;;;2.87;2.67;;;;;;;;;;5005325;28;20186;-53
2023/08/03 13:51:44;;;;;;;3.00;2.43;;;;;;;;;;5025587;28;20231;-53
2023/08/03 13:54:10;;;;;;;2.60;2.40;;;;;;;;;;5022087;28;20208;-53
2023/08/03 13:56:36;;;;;;;5.03;2.53;;;;;;;;;;5019920;28;20657;-53
2023/08/03 13:59:02;;;;;;;2.90;2.60;;;;;;;;;;5026304;28;20556;-53
2023/08/03 14:01:31;;;;;;;2.70;2.37;;;;;;;;;;5024976;28;20198;-53
2023/08/03 14:03:58;;;;;;;2.23;1.87;;;;;;;;;;5023135;28;20189;-53
2023/08/03 14:06:25;;;;;;;3.37;2.13;;;;;;;;;;5021648;28;20206;-53
2023/08/03 14:08:51;;;;;;;2.73;2.27;;;;;;;;;;5020585;28;20649;-53
2023/08/03 14:11:17;;;;;;;2.33;2.10;;;;;;;;;;5020469;28;20221;-54
2023/08/03 14:13:44;;;;;;;3.10;2.00;;;;;;;;;;5020393;28;20590;-54
2023/08/03 14:16:10;;;;;;;2.30;2.10;;;;;;;;;;5021613;28;20571;-53
2023/08/03 14:18:37;;;;;;;3.13;2.40;;;;;;;;;;5015688;28;20217;-53
2023/08/03 14:21:03;;;;;;;2.43;1.80;;;;;;;;;;5020886;28;20224;-53
2023/08/03 14:23:29;;;;;;;2.43;2.17;;;;;;;;;;5018577;28;20199;-53
2023/08/03 14:25:55;;;;;;;2.07;1.97;;;;;;;;;;5020200;28;20821;-53
2023/08/03 14:28:21;;;;;;;1.80;1.70;;;;;;;;;;5022586;28;20253;-53
2023/08/03 14:30:48;;;;;;;2.60;2.10;;;;;;;;;;5025984;28;20320;-54
2023/08/03 14:33:14;;;;;;;2.33;2.03;;;;;;;;;;5023024;28;20537;-53
2023/08/03 14:35:40;;;;;;;2.23;1.93;;;;;;;;;;5019429;28;20697;-53
2023/08/03 14:38:07;;;;;;;2.40;1.70;;;;;;;;;;5017121;28;20195;-51
2023/08/03 14:40:37;;;;;;;2.03;1.87;;;;;;;;;;5022409;28;20202;-51
2023/08/03 14:43:03;;;;;;;3.30;1.87;;;;;;;;;;5016190;28;20206;-52